createdAt,value
2018-07-28T00:00:48.218Z,25.10
2018-07-28T00:01:51.935Z,25.10
2018-07-28T00:02:55.420Z,25.10
2018-07-28T00:03:58.992Z,25.10
2018-07-28T00:05:03.490Z,25.10
2018-07-28T00:06:07.728Z,25.10
2018-07-28T00:07:11.846Z,25.10
2018-07-28T00:08:16.180Z,25.10
2018-07-28T00:09:20.285Z,25.10
2018-07-28T00:10:24.521Z,25.10
2018-07-28T00:11:28.104Z,25.10
2018-07-28T00:12:31.774Z,25.10
2018-07-28T00:13:35.456Z,25.10
2018-07-28T00:14:39.301Z,25.00
2018-07-28T00:16:46.564Z,25.00
2018-07-28T00:17:50.165Z,24.90
2018-07-28T00:18:54.120Z,24.90
2018-07-28T00:19:57.692Z,24.90
2018-07-28T00:21:01.231Z,24.90
2018-07-28T00:22:04.942Z,24.80
2018-07-28T00:23:08.461Z,24.90
2018-07-28T00:24:12.001Z,24.80
2018-07-28T00:25:15.635Z,24.80
2018-07-28T00:26:19.438Z,24.80
2018-07-28T00:27:22.981Z,24.70
2018-07-28T00:28:26.582Z,24.80
2018-07-28T00:29:30.195Z,24.70
2018-07-28T00:30:33.698Z,24.70
2018-07-28T00:31:37.209Z,24.70
2018-07-28T00:32:41.015Z,24.60
2018-07-28T00:33:44.897Z,24.60
2018-07-28T00:34:48.811Z,24.60
2018-07-28T00:35:52.817Z,24.60
2018-07-28T00:36:56.359Z,24.60
2018-07-28T00:37:59.904Z,24.60
2018-07-28T00:39:04.063Z,24.50
2018-07-28T00:40:08.169Z,24.50
2018-07-28T00:41:11.758Z,24.50
2018-07-28T00:42:15.467Z,24.50
2018-07-28T00:43:19.013Z,24.50
2018-07-28T00:44:22.716Z,24.40
2018-07-28T00:45:26.531Z,24.40
2018-07-28T00:46:30.060Z,24.40
2018-07-28T00:47:33.566Z,24.40
2018-07-28T00:48:37.184Z,24.50
2018-07-28T00:49:40.735Z,24.50
2018-07-28T00:50:44.337Z,24.40
2018-07-28T00:51:47.924Z,24.40
2018-07-28T00:52:51.548Z,24.50
2018-07-28T00:53:55.439Z,24.50
2018-07-28T00:54:58.950Z,24.40
2018-07-28T00:56:02.456Z,24.50
2018-07-28T00:57:05.999Z,24.40
2018-07-28T00:58:09.601Z,24.40
2018-07-28T00:59:13.154Z,24.40
2018-07-28T01:00:17.110Z,24.40
2018-07-28T01:01:20.714Z,24.40
2018-07-28T01:02:24.258Z,24.40
2018-07-28T01:03:27.887Z,24.40
2018-07-28T01:04:31.461Z,24.40
2018-07-28T01:05:34.981Z,24.40
2018-07-28T01:06:38.455Z,24.30
2018-07-28T01:07:42.048Z,24.30
2018-07-28T01:08:45.591Z,24.30
2018-07-28T01:09:49.097Z,24.30
2018-07-28T01:10:52.626Z,24.30
2018-07-28T01:11:56.261Z,24.30
2018-07-28T01:13:00.246Z,24.30
2018-07-28T01:14:03.886Z,24.30
2018-07-28T01:15:09.758Z,24.30
2018-07-28T01:16:13.273Z,24.30
2018-07-28T01:17:16.789Z,24.20
2018-07-28T01:18:20.338Z,24.20
2018-07-28T01:19:23.896Z,24.20
2018-07-28T01:20:27.438Z,24.20
2018-07-28T01:21:31.058Z,24.20
2018-07-28T01:22:34.595Z,24.20
2018-07-28T01:23:38.245Z,24.20
2018-07-28T01:24:41.785Z,24.20
2018-07-28T01:25:45.457Z,24.20
2018-07-28T01:26:49.004Z,24.20
2018-07-28T01:27:52.530Z,24.20
2018-07-28T01:29:01.380Z,24.20
2018-07-28T01:30:07.532Z,24.20
2018-07-28T01:31:11.170Z,24.20
2018-07-28T01:32:14.708Z,24.10
2018-07-28T01:33:18.293Z,24.10
2018-07-28T01:34:21.827Z,24.00
2018-07-28T01:35:25.355Z,24.10
2018-07-28T01:36:28.899Z,24.00
2018-07-28T01:37:32.529Z,24.00
2018-07-28T01:38:36.055Z,24.10
2018-07-28T01:39:39.886Z,24.10
2018-07-28T01:40:43.453Z,24.10
2018-07-28T01:41:46.978Z,24.00
2018-07-28T01:42:50.459Z,24.00
2018-07-28T01:43:54.104Z,24.00
2018-07-28T01:44:57.743Z,24.00
2018-07-28T01:46:01.263Z,24.00
2018-07-28T01:47:04.805Z,24.00
2018-07-28T01:48:08.511Z,24.00
2018-07-28T01:49:12.223Z,23.90
2018-07-28T01:50:15.734Z,23.90
2018-07-28T01:51:19.303Z,23.90
2018-07-28T01:52:22.870Z,23.90
2018-07-28T01:53:26.425Z,23.90
2018-07-28T01:54:29.903Z,23.80
2018-07-28T01:55:33.409Z,23.80
2018-07-28T01:56:37.059Z,23.80
2018-07-28T01:57:40.607Z,23.80
2018-07-28T01:58:44.243Z,23.80
2018-07-28T01:59:47.807Z,23.80
2018-07-28T02:00:51.380Z,23.80
2018-07-28T02:01:54.990Z,23.70
2018-07-28T02:02:58.578Z,23.70
2018-07-28T02:04:02.115Z,23.70
2018-07-28T02:05:07.106Z,23.70
2018-07-28T02:06:10.675Z,23.70
2018-07-28T02:07:14.206Z,23.70
2018-07-28T02:08:17.778Z,23.70
2018-07-28T02:09:21.251Z,23.70
2018-07-28T02:10:24.774Z,23.70
2018-07-28T02:11:28.360Z,23.60
2018-07-28T02:12:31.881Z,23.60
2018-07-28T02:13:35.412Z,23.60
2018-07-28T02:14:38.919Z,23.60
2018-07-28T02:15:42.476Z,23.60
2018-07-28T02:16:46.022Z,23.60
2018-07-28T02:17:49.535Z,23.60
2018-07-28T02:18:53.645Z,23.60
2018-07-28T02:19:57.138Z,23.50
2018-07-28T02:21:00.977Z,23.50
2018-07-28T02:22:04.483Z,23.50
2018-07-28T02:23:08.053Z,23.50
2018-07-28T02:24:11.702Z,23.50
2018-07-28T02:25:15.206Z,23.40
2018-07-28T02:26:18.773Z,23.40
2018-07-28T02:27:22.293Z,23.40
2018-07-28T02:28:25.802Z,23.40
2018-07-28T02:29:29.366Z,23.40
2018-07-28T02:30:32.878Z,23.40
2018-07-28T02:31:36.434Z,23.30
2018-07-28T02:32:39.971Z,23.30
2018-07-28T02:33:43.449Z,23.20
2018-07-28T02:34:46.989Z,23.20
2018-07-28T02:35:50.577Z,23.20
2018-07-28T02:36:54.057Z,23.20
2018-07-28T02:37:57.602Z,23.20
2018-07-28T02:39:01.172Z,23.20
2018-07-28T02:40:05.232Z,23.20
2018-07-28T02:41:08.784Z,23.20
2018-07-28T02:42:12.367Z,23.20
2018-07-28T02:43:15.900Z,23.20
2018-07-28T02:44:19.420Z,23.20
2018-07-28T02:45:22.943Z,23.20
2018-07-28T02:46:26.512Z,23.20
2018-07-28T02:47:30.108Z,23.20
2018-07-28T02:48:33.696Z,23.10
2018-07-28T02:49:37.221Z,23.10
2018-07-28T02:50:40.826Z,23.10
2018-07-28T02:51:44.446Z,23.00
2018-07-28T02:52:47.998Z,23.00
2018-07-28T02:53:51.615Z,23.00
2018-07-28T02:54:55.096Z,23.00
2018-07-28T02:55:58.650Z,23.00
2018-07-28T02:57:02.494Z,22.90
2018-07-28T02:58:06.469Z,22.90
2018-07-28T02:59:09.967Z,22.90
2018-07-28T03:00:16.133Z,22.90
2018-07-28T03:01:19.616Z,22.90
2018-07-28T03:02:23.139Z,22.80
2018-07-28T03:03:26.623Z,22.80
2018-07-28T03:04:30.279Z,22.80
2018-07-28T03:05:33.776Z,22.70
2018-07-28T03:06:37.312Z,22.70
2018-07-28T03:07:40.865Z,22.70
2018-07-28T03:08:44.410Z,22.70
2018-07-28T03:09:47.896Z,22.70
2018-07-28T03:10:51.464Z,22.70
2018-07-28T03:11:54.977Z,22.70
2018-07-28T03:12:58.435Z,22.60
2018-07-28T03:14:01.945Z,22.70
2018-07-28T03:15:14.521Z,22.60
2018-07-28T03:16:18.136Z,22.70
2018-07-28T03:17:21.673Z,22.60
2018-07-28T03:18:25.200Z,22.60
2018-07-28T03:19:28.857Z,22.60
2018-07-28T03:20:32.557Z,22.60
2018-07-28T03:21:36.053Z,22.60
2018-07-28T03:22:39.559Z,22.50
2018-07-28T03:23:43.422Z,22.50
2018-07-28T03:24:46.960Z,22.40
2018-07-28T03:25:50.435Z,22.40
2018-07-28T03:26:53.948Z,22.30
2018-07-28T03:27:57.584Z,22.20
2018-07-28T03:29:01.189Z,22.30
2018-07-28T03:30:04.752Z,22.20
2018-07-28T03:31:08.265Z,22.20
2018-07-28T03:32:11.883Z,22.20
2018-07-28T03:33:15.354Z,22.20
2018-07-28T03:34:18.827Z,22.10
2018-07-28T03:35:22.320Z,22.20
2018-07-28T03:36:25.842Z,22.20
2018-07-28T03:37:29.337Z,22.30
2018-07-28T03:38:32.838Z,22.20
2018-07-28T03:39:36.374Z,22.20
2018-07-28T03:40:39.935Z,22.20
2018-07-28T03:41:43.595Z,22.20
2018-07-28T03:42:47.110Z,22.20
2018-07-28T03:43:50.626Z,22.20
2018-07-28T03:44:54.154Z,22.10
2018-07-28T03:45:57.600Z,22.10
2018-07-28T03:47:01.125Z,22.10
2018-07-28T03:48:04.701Z,22.10
2018-07-28T03:49:08.388Z,22.20
2018-07-28T03:50:12.088Z,22.20
2018-07-28T03:51:15.593Z,22.20
2018-07-28T03:52:19.186Z,22.20
2018-07-28T03:53:22.661Z,22.20
2018-07-28T03:54:26.235Z,22.10
2018-07-28T03:55:29.806Z,22.10
2018-07-28T03:56:33.318Z,22.10
2018-07-28T03:57:36.829Z,22.00
2018-07-28T03:58:40.299Z,22.00
2018-07-28T03:59:44.073Z,22.00
2018-07-28T04:00:47.572Z,22.00
2018-07-28T04:01:51.077Z,22.10
2018-07-28T04:02:54.591Z,22.10
2018-07-28T04:03:58.105Z,22.10
2018-07-28T04:05:01.569Z,22.10
2018-07-28T04:06:05.102Z,22.10
2018-07-28T04:07:08.602Z,22.10
2018-07-28T04:08:12.257Z,22.10
2018-07-28T04:09:15.722Z,22.10
2018-07-28T04:10:19.322Z,22.10
2018-07-28T04:11:22.850Z,22.10
2018-07-28T04:12:26.361Z,22.00
2018-07-28T04:13:29.865Z,22.10
2018-07-28T04:14:33.451Z,22.10
2018-07-28T04:15:36.896Z,22.10
2018-07-28T04:16:40.389Z,22.10
2018-07-28T04:17:59.800Z,22.00
2018-07-28T04:19:03.241Z,22.00
2018-07-28T04:20:06.762Z,22.00
2018-07-28T04:21:10.400Z,22.00
2018-07-28T04:22:14.024Z,22.00
2018-07-28T04:23:17.478Z,21.90
2018-07-28T04:24:20.998Z,21.90
2018-07-28T04:25:24.773Z,21.80
2018-07-28T04:26:28.319Z,21.80
2018-07-28T04:27:31.817Z,21.80
2018-07-28T04:28:35.318Z,21.90
2018-07-28T04:29:38.808Z,21.90
2018-07-28T04:30:42.381Z,21.80
2018-07-28T04:31:45.905Z,21.80
2018-07-28T04:32:49.498Z,21.80
2018-07-28T04:33:53.090Z,21.90
2018-07-28T04:34:56.527Z,21.90
2018-07-28T04:36:00.111Z,22.00
2018-07-28T04:37:03.690Z,21.90
2018-07-28T04:38:07.148Z,21.90
2018-07-28T04:39:12.931Z,21.80
2018-07-28T04:40:16.599Z,21.80
2018-07-28T04:41:20.215Z,21.80
2018-07-28T04:42:23.735Z,21.90
2018-07-28T04:43:27.282Z,21.90
2018-07-28T04:44:30.792Z,21.80
2018-07-28T04:45:34.264Z,21.90
2018-07-28T04:46:38.024Z,21.80
2018-07-28T04:47:41.570Z,21.90
2018-07-28T04:48:45.038Z,21.90
2018-07-28T04:49:48.537Z,21.90
2018-07-28T04:50:52.131Z,21.90
2018-07-28T04:51:55.906Z,21.90
2018-07-28T04:52:59.461Z,21.80
2018-07-28T04:54:03.020Z,21.90
2018-07-28T04:55:07.302Z,21.90
2018-07-28T04:56:10.896Z,22.00
2018-07-28T04:57:14.445Z,22.00
2018-07-28T04:58:17.916Z,22.00
2018-07-28T04:59:21.497Z,22.00
2018-07-28T05:00:25.035Z,22.00
2018-07-28T05:01:28.533Z,22.00
2018-07-28T05:02:32.007Z,22.00
2018-07-28T05:03:35.617Z,22.00
2018-07-28T05:04:39.094Z,22.00
2018-07-28T05:05:42.689Z,21.90
2018-07-28T05:06:46.172Z,21.90
2018-07-28T05:07:50.016Z,21.90
2018-07-28T05:08:53.625Z,21.80
2018-07-28T05:09:57.097Z,21.90
2018-07-28T05:11:00.550Z,21.90
2018-07-28T05:12:04.187Z,21.80
2018-07-28T05:13:07.801Z,21.70
2018-07-28T05:14:11.372Z,21.70
2018-07-28T05:15:14.928Z,21.70
2018-07-28T05:16:18.454Z,21.70
2018-07-28T05:17:22.273Z,21.70
2018-07-28T05:18:25.788Z,21.70
2018-07-28T05:19:29.264Z,21.60
2018-07-28T05:20:32.815Z,21.60
2018-07-28T05:21:36.394Z,21.60
2018-07-28T05:22:39.956Z,21.50
2018-07-28T05:23:43.526Z,21.50
2018-07-28T05:24:46.998Z,21.40
2018-07-28T05:25:50.539Z,21.40
2018-07-28T05:26:54.151Z,21.40
2018-07-28T05:27:57.695Z,21.40
2018-07-28T05:29:01.138Z,21.40
2018-07-28T05:30:05.750Z,21.40
2018-07-28T05:31:09.307Z,21.50
2018-07-28T05:32:12.906Z,21.60
2018-07-28T05:33:16.389Z,21.60
2018-07-28T05:34:19.944Z,21.70
2018-07-28T05:35:23.505Z,21.70
2018-07-28T05:36:26.987Z,21.90
2018-07-28T05:37:30.551Z,22.10
2018-07-28T05:38:34.036Z,22.40
2018-07-28T05:39:37.497Z,23.00
2018-07-28T05:40:41.069Z,23.40
2018-07-28T05:41:44.676Z,23.60
2018-07-28T05:42:48.217Z,23.80
2018-07-28T05:43:51.669Z,24.30
2018-07-28T05:44:55.300Z,24.90
2018-07-28T05:45:58.769Z,25.60
2018-07-28T05:47:02.606Z,26.40
2018-07-28T05:48:06.258Z,27.10
2018-07-28T05:49:10.506Z,27.90
2018-07-28T05:50:14.199Z,28.60
2018-07-28T05:51:17.789Z,29.40
2018-07-28T05:52:21.486Z,30.10
2018-07-28T05:53:25.022Z,30.90
2018-07-28T05:54:28.568Z,31.50
2018-07-28T05:55:32.131Z,32.10
2018-07-28T05:56:35.689Z,32.40
2018-07-28T05:57:39.256Z,32.70
2018-07-28T05:58:42.885Z,33.00
2018-07-28T05:59:46.531Z,33.20
2018-07-28T06:00:50.054Z,33.50
2018-07-28T06:01:53.785Z,33.50
2018-07-28T06:02:57.773Z,33.60
2018-07-28T06:04:01.502Z,33.90
2018-07-28T06:05:06.388Z,34.00
2018-07-28T06:06:10.263Z,34.10
2018-07-28T06:07:14.248Z,34.20
2018-07-28T06:08:17.898Z,34.40
2018-07-28T06:09:21.759Z,34.60
2018-07-28T06:10:25.334Z,35.00
2018-07-28T06:11:29.113Z,35.30
2018-07-28T06:12:32.825Z,35.50
2018-07-28T06:14:39.881Z,36.00
2018-07-28T06:15:43.442Z,36.30
2018-07-28T06:18:22.414Z,36.10
2018-07-28T06:19:26.076Z,36.00
2018-07-28T06:20:29.744Z,36.20
2018-07-28T06:21:33.453Z,36.50
2018-07-28T06:22:37.600Z,36.70
2018-07-28T06:23:41.328Z,36.90
2018-07-28T06:24:44.913Z,37.00
2018-07-28T06:25:49.414Z,37.40
2018-07-28T06:26:53.082Z,37.50
2018-07-28T06:27:56.746Z,37.90
2018-07-28T06:29:00.325Z,38.20
2018-07-28T06:30:04.916Z,38.60
2018-07-28T06:31:08.609Z,38.50
2018-07-28T06:32:12.791Z,38.10
2018-07-28T06:33:16.474Z,37.60
2018-07-28T06:34:20.150Z,37.70
2018-07-28T06:35:23.874Z,37.60
2018-07-28T06:36:27.720Z,37.60
2018-07-28T06:37:31.288Z,37.70
2018-07-28T06:38:34.940Z,37.90
2018-07-28T06:39:38.734Z,38.10
2018-07-28T06:40:42.354Z,38.30
2018-07-28T06:41:45.986Z,38.20
2018-07-28T06:42:49.682Z,38.10
2018-07-28T06:43:53.689Z,38.10
2018-07-28T06:44:57.567Z,38.20
2018-07-28T06:46:01.170Z,38.40
2018-07-28T06:47:05.067Z,38.70
2018-07-28T06:48:08.745Z,38.90
2018-07-28T06:49:13.044Z,39.40
2018-07-28T06:50:16.725Z,39.50
2018-07-28T06:51:20.357Z,39.60
2018-07-28T06:52:24.142Z,39.90
2018-07-28T06:53:27.765Z,40.00
2018-07-28T06:54:31.406Z,40.10
2018-07-28T06:55:35.216Z,40.40
2018-07-28T06:56:38.893Z,40.50
2018-07-28T06:57:43.221Z,40.60
2018-07-28T06:58:46.918Z,40.60
2018-07-28T06:59:51.877Z,40.70
2018-07-28T07:00:57.001Z,41.00
2018-07-28T07:02:00.695Z,41.10
2018-07-28T07:03:04.575Z,41.00
2018-07-28T07:04:08.347Z,40.80
2018-07-28T07:05:14.005Z,41.00
2018-07-28T07:06:19.002Z,40.90
2018-07-28T07:07:23.637Z,40.70
2018-07-28T07:08:27.408Z,40.00
2018-07-28T07:09:31.208Z,39.50
2018-07-28T07:10:34.811Z,38.90
2018-07-28T07:11:38.454Z,38.20
2018-07-28T07:12:42.091Z,38.00
2018-07-28T07:13:45.646Z,38.10
2018-07-28T07:14:49.243Z,38.40
2018-07-28T07:15:53.597Z,38.60
2018-07-28T07:16:57.737Z,38.30
2018-07-28T07:18:01.416Z,37.70
2018-07-28T07:19:05.266Z,37.20
2018-07-28T07:20:09.078Z,37.00
2018-07-28T07:21:14.098Z,36.50
2018-07-28T07:22:17.677Z,36.10
2018-07-28T07:23:21.273Z,35.40
2018-07-28T07:24:24.882Z,34.80
2018-07-28T07:25:28.498Z,34.40
2018-07-28T07:26:32.167Z,34.10
2018-07-28T07:27:35.852Z,33.90
2018-07-28T07:28:39.429Z,33.80
2018-07-28T07:29:43.347Z,33.50
2018-07-28T07:30:47.328Z,33.60
2018-07-28T07:31:51.612Z,33.70
2018-07-28T07:32:55.398Z,34.00
2018-07-28T07:33:59.173Z,34.60
2018-07-28T07:35:03.028Z,35.20
2018-07-28T07:36:06.891Z,35.70
2018-07-28T07:37:10.726Z,36.20
2018-07-28T07:38:16.021Z,36.40
2018-07-28T07:39:19.730Z,36.20
2018-07-28T07:40:23.961Z,36.30
2018-07-28T07:41:28.012Z,36.70
2018-07-28T07:42:31.746Z,37.10
2018-07-28T07:43:35.431Z,37.30
2018-07-28T07:44:39.218Z,37.40
2018-07-28T07:45:42.919Z,37.50
2018-07-28T07:46:46.640Z,37.60
2018-07-28T07:47:50.686Z,37.50
2018-07-28T07:48:56.891Z,37.40
2018-07-28T07:50:00.502Z,37.20
2018-07-28T07:51:04.254Z,37.00
2018-07-28T07:52:09.729Z,36.70
2018-07-28T07:53:14.550Z,36.40
2018-07-28T07:54:18.156Z,36.10
2018-07-28T07:55:21.822Z,35.60
2018-07-28T07:56:25.629Z,35.20
2018-07-28T07:57:29.344Z,34.90
2018-07-28T07:58:33.006Z,34.60
2018-07-28T07:59:45.602Z,34.30
2018-07-28T08:00:49.258Z,34.20
2018-07-28T08:01:53.390Z,34.10
2018-07-28T08:02:57.180Z,34.00
2018-07-28T08:04:00.843Z,33.90
2018-07-28T08:05:14.375Z,34.20
2018-07-28T08:06:18.282Z,34.60
2018-07-28T08:07:21.973Z,34.90
2018-07-28T08:08:26.570Z,35.10
2018-07-28T08:09:32.170Z,35.20
2018-07-28T08:10:36.320Z,35.10
2018-07-28T08:11:41.383Z,35.00
2018-07-28T08:12:45.204Z,34.80
2018-07-28T08:13:49.195Z,34.60
2018-07-28T08:14:53.601Z,34.50
2018-07-28T08:15:57.568Z,34.30
2018-07-28T08:17:01.623Z,34.20
2018-07-28T08:18:05.549Z,34.00
2018-07-28T08:19:09.806Z,33.90
2018-07-28T08:21:18.130Z,33.70
2018-07-28T08:22:22.002Z,33.60
2018-07-28T08:23:26.055Z,33.60
2018-07-28T08:24:30.889Z,33.50
2018-07-28T08:25:34.932Z,33.50
2018-07-28T08:26:39.002Z,33.40
2018-07-28T08:27:43.516Z,33.30
2018-07-28T08:28:47.532Z,33.30
2018-07-28T08:29:52.612Z,33.30
2018-07-28T08:30:56.967Z,33.30
2018-07-28T08:32:00.739Z,33.20
2018-07-28T08:33:04.722Z,33.00
2018-07-28T08:34:08.664Z,32.80
2018-07-28T08:35:13.215Z,32.80
2018-07-28T08:36:17.340Z,32.60
2018-07-28T08:37:21.044Z,32.40
2018-07-28T08:38:30.106Z,32.20
2018-07-28T08:39:34.426Z,32.20
2018-07-28T08:40:38.533Z,32.00
2018-07-28T08:41:43.349Z,31.90
2018-07-28T08:42:47.088Z,31.50
2018-07-28T08:43:51.160Z,31.00
2018-07-28T08:44:55.262Z,30.70
2018-07-28T08:45:59.014Z,30.60
2018-07-28T08:47:02.761Z,30.30
2018-07-28T08:48:08.110Z,30.10
2018-07-28T08:49:12.525Z,30.00
2018-07-28T08:50:17.145Z,29.90
2018-07-28T08:51:20.876Z,29.90
2018-07-28T08:52:24.900Z,29.80
2018-07-28T08:53:28.788Z,29.80
2018-07-28T08:54:32.659Z,29.70
2018-07-28T08:55:36.641Z,29.70
2018-07-28T08:56:40.382Z,29.70
2018-07-28T08:57:44.498Z,29.60
2018-07-28T08:58:48.134Z,29.50
2018-07-28T08:59:51.942Z,29.40
2018-07-28T09:00:55.701Z,29.30
2018-07-28T09:01:59.339Z,29.20
2018-07-28T09:03:03.058Z,29.00
2018-07-28T09:04:07.619Z,28.90
2018-07-28T09:05:13.681Z,28.80
2018-07-28T09:06:17.393Z,28.60
2018-07-28T09:07:21.280Z,28.40
2018-07-28T09:08:24.936Z,28.30
2018-07-28T09:09:31.340Z,28.10
2018-07-28T09:10:35.868Z,28.00
2018-07-28T09:11:39.541Z,27.80
2018-07-28T09:12:43.219Z,27.80
2018-07-28T09:13:46.937Z,27.70
2018-07-28T09:14:50.963Z,27.70
2018-07-28T09:15:55.058Z,27.80
2018-07-28T09:16:59.150Z,27.90
2018-07-28T09:18:03.088Z,27.90
2018-07-28T09:19:08.450Z,28.00
2018-07-28T09:20:12.868Z,28.00
2018-07-28T09:21:18.914Z,28.00
2018-07-28T09:22:22.824Z,28.20
2018-07-28T09:23:26.646Z,28.30
2018-07-28T09:24:30.538Z,28.50
2018-07-28T09:25:34.186Z,28.60
2018-07-28T09:26:37.858Z,28.70
2018-07-28T09:27:41.760Z,28.60
2018-07-28T09:28:46.127Z,28.50
2018-07-28T09:29:50.251Z,28.40
2018-07-28T09:30:54.889Z,28.30
2018-07-28T09:31:58.937Z,28.30
2018-07-28T09:33:02.835Z,28.20
2018-07-28T09:34:06.710Z,28.10
2018-07-28T09:35:11.791Z,28.20
2018-07-28T09:36:15.595Z,28.20
2018-07-28T09:37:19.618Z,28.20
2018-07-28T09:38:23.870Z,28.30
2018-07-28T09:39:28.045Z,28.30
2018-07-28T09:40:32.469Z,28.30
2018-07-28T09:41:36.426Z,28.30
2018-07-28T09:42:40.285Z,28.30
2018-07-28T09:43:44.284Z,28.30
2018-07-28T09:44:48.041Z,28.20
2018-07-28T09:45:52.038Z,28.00
2018-07-28T09:46:56.226Z,27.90
2018-07-28T09:47:59.976Z,27.80
2018-07-28T09:49:03.910Z,27.70
2018-07-28T09:50:07.768Z,27.60
2018-07-28T09:51:12.799Z,27.50
2018-07-28T09:52:17.346Z,27.50
2018-07-28T09:53:21.456Z,27.40
2018-07-28T09:54:25.138Z,27.30
2018-07-28T09:55:28.785Z,27.30
2018-07-28T09:57:35.875Z,27.20
2018-07-28T09:58:39.596Z,27.20
2018-07-28T09:59:44.444Z,27.10
2018-07-28T10:00:53.407Z,27.10
2018-07-28T10:01:57.215Z,27.00
2018-07-28T10:03:01.185Z,26.90
2018-07-28T10:04:04.992Z,26.80
2018-07-28T10:05:08.859Z,26.80
2018-07-28T10:06:13.878Z,26.70
2018-07-28T10:07:17.737Z,26.60
2018-07-28T10:08:21.640Z,26.60
2018-07-28T10:09:25.340Z,26.60
2018-07-28T10:10:29.534Z,26.60
2018-07-28T10:11:34.556Z,26.50
2018-07-28T10:12:40.090Z,26.50
2018-07-28T10:13:44.188Z,26.40
2018-07-28T10:14:47.870Z,26.40
2018-07-28T10:15:51.839Z,26.40
2018-07-28T10:16:55.629Z,26.40
2018-07-28T10:17:59.403Z,26.40
2018-07-28T10:19:03.147Z,26.40
2018-07-28T10:20:06.856Z,26.40
2018-07-28T10:21:10.565Z,26.40
2018-07-28T10:22:14.572Z,26.40
2018-07-28T10:23:18.894Z,26.30
2018-07-28T10:24:22.904Z,26.30
2018-07-28T10:25:26.935Z,26.20
2018-07-28T10:26:31.250Z,26.20
2018-07-28T10:27:35.236Z,26.20
2018-07-28T10:28:39.058Z,26.10
2018-07-28T10:29:42.756Z,26.10
2018-07-28T10:31:50.042Z,26.20
2018-07-28T10:32:53.757Z,26.30
2018-07-28T10:33:58.074Z,26.30
2018-07-28T10:35:02.825Z,26.30
2018-07-28T10:36:07.658Z,26.40
2018-07-28T10:37:12.527Z,26.50
2018-07-28T10:38:16.177Z,26.50
2018-07-28T10:39:20.132Z,26.50
2018-07-28T10:40:24.129Z,26.60
2018-07-28T10:41:28.757Z,26.60
2018-07-28T10:42:32.982Z,26.60
2018-07-28T10:43:37.414Z,26.70
2018-07-28T10:44:41.404Z,26.70
2018-07-28T10:45:45.467Z,26.80
2018-07-28T10:46:49.427Z,26.90
2018-07-28T10:47:54.227Z,27.00
2018-07-28T10:48:58.223Z,27.10
2018-07-28T10:50:03.406Z,27.20
2018-07-28T10:51:08.081Z,27.30
2018-07-28T10:52:13.978Z,27.40
2018-07-28T10:53:18.829Z,27.50
2018-07-28T10:54:22.430Z,27.50
2018-07-28T10:55:29.013Z,27.60
2018-07-28T10:57:36.737Z,27.80
2018-07-28T10:58:40.492Z,27.70
2018-07-28T10:59:44.366Z,27.80
2018-07-28T11:00:47.985Z,27.90
2018-07-28T11:01:51.714Z,27.90
2018-07-28T11:02:55.395Z,27.90
2018-07-28T11:03:59.192Z,28.00
2018-07-28T11:05:02.916Z,28.00
2018-07-28T11:06:07.063Z,28.10
2018-07-28T11:07:10.960Z,28.10
2018-07-28T11:08:14.723Z,28.10
2018-07-28T11:09:18.484Z,28.20
2018-07-28T11:10:22.157Z,28.20
2018-07-28T11:11:25.843Z,28.20
2018-07-28T11:12:29.530Z,28.30
2018-07-28T11:13:33.246Z,28.40
2018-07-28T11:14:37.180Z,28.60
2018-07-28T11:15:41.117Z,28.70
2018-07-28T11:16:45.001Z,28.70
2018-07-28T11:17:50.883Z,28.90
2018-07-28T11:18:54.582Z,29.10
2018-07-28T11:19:58.285Z,29.40
2018-07-28T11:21:03.939Z,29.60
2018-07-28T11:22:08.538Z,29.70
2018-07-28T11:23:17.905Z,29.90
2018-07-28T11:24:21.661Z,30.00
2018-07-28T11:25:25.730Z,30.10
2018-07-28T11:26:29.698Z,30.10
2018-07-28T11:27:33.267Z,30.30
2018-07-28T11:28:37.076Z,30.40
2018-07-28T11:29:40.942Z,30.60
2018-07-28T11:30:44.630Z,30.70
2018-07-28T11:31:59.829Z,30.70
2018-07-28T11:33:14.601Z,30.50
2018-07-28T11:34:29.357Z,30.40
2018-07-28T11:35:45.545Z,30.30
2018-07-28T11:37:05.767Z,30.20
2018-07-28T11:38:20.782Z,29.80
2018-07-28T11:39:35.846Z,29.60
2018-07-28T11:40:50.939Z,29.40
2018-07-28T11:42:06.399Z,29.30
2018-07-28T11:43:21.426Z,29.10
2018-07-28T11:44:36.423Z,29.10
2018-07-28T11:45:40.287Z,28.80
2018-07-28T11:46:44.392Z,28.70
2018-07-28T11:47:53.934Z,28.70
2018-07-28T11:48:58.101Z,28.70
2018-07-28T11:50:02.090Z,28.80
2018-07-28T11:51:06.186Z,28.80
2018-07-28T11:52:12.601Z,28.80
2018-07-28T11:53:16.742Z,28.90
2018-07-28T11:54:20.688Z,29.20
2018-07-28T11:55:24.540Z,29.40
2018-07-28T11:56:28.539Z,29.60
2018-07-28T11:57:32.252Z,29.80
2018-07-28T11:58:36.545Z,29.90
2018-07-28T11:59:40.295Z,29.80
2018-07-28T12:01:47.414Z,29.80
2018-07-28T12:02:51.243Z,29.50
2018-07-28T12:03:55.207Z,29.40
2018-07-28T12:05:01.407Z,29.20
2018-07-28T12:06:06.029Z,29.00
2018-07-28T12:07:10.712Z,29.10
2018-07-28T12:08:15.009Z,29.40
2018-07-28T12:09:18.753Z,29.50
2018-07-28T12:10:22.698Z,29.80
2018-07-28T12:11:26.608Z,30.00
2018-07-28T12:12:30.494Z,30.10
2018-07-28T12:13:34.249Z,30.30
2018-07-28T12:14:37.879Z,30.50
2018-07-28T12:15:42.093Z,30.60
2018-07-28T12:19:49.264Z,30.70
2018-07-28T12:21:02.823Z,30.60
2018-07-28T12:22:15.090Z,30.80
2018-07-28T12:23:21.115Z,30.90
2018-07-28T12:24:24.783Z,31.00
2018-07-28T12:25:28.482Z,31.20
2018-07-28T12:26:32.679Z,31.30
2018-07-28T12:27:36.907Z,31.40
2018-07-28T12:28:40.486Z,31.20
2018-07-28T12:29:44.046Z,30.90
2018-07-28T12:30:49.156Z,30.80
2018-07-28T12:31:53.011Z,30.70
2018-07-28T12:32:58.013Z,30.60
2018-07-28T12:34:02.485Z,30.70
2018-07-28T12:35:07.703Z,30.70
2018-07-28T12:36:11.525Z,30.70
2018-07-28T12:37:15.222Z,30.70
2018-07-28T12:38:19.357Z,30.70
2018-07-28T12:39:23.619Z,30.70
2018-07-28T12:40:28.801Z,30.60
2018-07-28T12:41:32.771Z,30.60
2018-07-28T12:42:37.561Z,30.50
2018-07-28T12:43:41.324Z,30.50
2018-07-28T12:44:45.392Z,30.50
2018-07-28T12:45:49.619Z,30.50
2018-07-28T12:46:53.871Z,30.50
2018-07-28T12:47:59.056Z,30.60
2018-07-28T12:49:02.867Z,30.50
2018-07-28T12:50:07.830Z,30.30
2018-07-28T12:51:11.767Z,30.20
2018-07-28T12:52:15.683Z,30.20
2018-07-28T12:53:20.205Z,30.30
2018-07-28T12:54:25.796Z,30.40
2018-07-28T12:55:30.171Z,30.40
2018-07-28T12:56:34.938Z,30.50
2018-07-28T12:57:38.616Z,30.40
2018-07-28T12:59:46.346Z,30.40
2018-07-28T13:00:49.929Z,30.50
2018-07-28T13:01:53.559Z,30.70
2018-07-28T13:02:57.407Z,30.80
2018-07-28T13:04:01.709Z,30.90
2018-07-28T13:05:06.498Z,31.00
2018-07-28T13:06:10.810Z,31.20
2018-07-28T13:07:16.460Z,31.20
2018-07-28T13:08:20.486Z,31.20
2018-07-28T13:09:25.001Z,31.20
2018-07-28T13:10:28.544Z,31.20
2018-07-28T13:11:33.350Z,31.20
2018-07-28T13:12:37.857Z,31.20
2018-07-28T13:13:41.549Z,31.30
2018-07-28T13:14:45.437Z,31.30
2018-07-28T13:15:49.948Z,31.30
2018-07-28T13:16:54.300Z,31.30
2018-07-28T13:17:58.235Z,31.30
2018-07-28T13:19:02.757Z,31.20
2018-07-28T13:20:07.879Z,31.10
2018-07-28T13:21:12.172Z,31.10
2018-07-28T13:22:15.907Z,31.00
2018-07-28T13:23:20.476Z,30.90
2018-07-28T13:24:23.988Z,30.90
2018-07-28T13:25:28.353Z,30.90
2018-07-28T13:26:32.276Z,30.90
2018-07-28T13:27:37.093Z,30.90
2018-07-28T13:28:40.733Z,30.90
2018-07-28T13:29:44.304Z,30.80
2018-07-28T13:30:48.194Z,30.60
2018-07-28T13:31:51.828Z,30.50
2018-07-28T13:32:56.665Z,30.60
2018-07-28T13:35:05.009Z,30.70
2018-07-28T13:36:09.252Z,30.90
2018-07-28T13:37:14.557Z,31.00
2018-07-28T13:38:18.138Z,31.20
2018-07-28T13:39:21.704Z,31.50
2018-07-28T13:40:26.173Z,31.60
2018-07-28T13:41:29.836Z,31.70
2018-07-28T13:42:34.036Z,31.90
2018-07-28T13:43:38.482Z,32.00
2018-07-28T13:44:42.119Z,31.70
2018-07-28T13:45:45.710Z,31.30
2018-07-28T13:46:49.260Z,31.20
2018-07-28T13:47:53.104Z,31.00
2018-07-28T13:48:57.538Z,31.10
2018-07-28T13:50:02.830Z,31.00
2018-07-28T13:51:06.646Z,31.00
2018-07-28T13:52:10.583Z,30.90
2018-07-28T13:53:14.356Z,31.00
2018-07-28T13:54:17.940Z,31.10
2018-07-28T13:55:21.565Z,31.10
2018-07-28T13:56:25.466Z,31.30
2018-07-28T13:57:29.371Z,31.30
2018-07-28T13:58:33.218Z,31.00
2018-07-28T13:59:37.776Z,30.70
2018-07-28T14:00:41.812Z,30.40